Time;durP1;ratioP1;P1;durP2;ratioP2;P2;SDS_P1;SDS_P2;PMS_P1;PMS_P2;Temp;Humidity;BMP_temperature;BMP_pressure;BME280_temperature;BME280_humidity;BME280_pressure;Samples;Min_cycle;Max_cycle;Signal;HPM_P1;HPM_P2
2022/12/29 00:02:09;;;;;;;;;;;;;;;11.97;93.16;98526.06;5071905;28;19916;-42
2022/12/29 00:04:34;;;;;;;;;;;;;;;11.79;94.02;98521.69;5075434;28;20046;-42
2022/12/29 00:07:00;;;;;;;;;;;;;;;11.71;94.94;98509.97;5072271;28;20733;-41
2022/12/29 00:09:25;;;;;;;;;;;;;;;11.78;96.34;98507.13;5074413;28;20043;-42
2022/12/29 00:11:50;;;;;;;;;;;;;;;11.99;96.20;98495.84;5074946;28;20445;-42
2022/12/29 00:16:59;;;;;;;;;;;;;;;11.75;97.39;98464.25;5072720;28;19980;-42
2022/12/29 00:36:06;;;;;;;;;;;;;;;11.50;94.20;98449.03;5072803;28;19989;-42
2022/12/29 00:44:11;;;;;;;;;;;;;;;11.83;94.85;98456.97;5048290;28;19969;-42
2022/12/29 00:46:37;;;;;;;;;;;;;;;12.00;95.40;98451.09;5073546;28;20901;-41
2022/12/29 00:51:46;;;;;;;;;;;;;;;11.72;96.54;98408.47;5071150;28;19963;-42
2022/12/29 00:54:11;;;;;;;;;;;;;;;11.56;92.99;98422.13;5070002;28;20273;-42
2022/12/29 00:56:37;;;;;;;;;;;;;;;11.58;90.48;98448.69;5071833;28;19959;-42
2022/12/29 00:59:03;;;;;;;;;;;;;;;11.95;88.13;98471.13;5073331;28;20347;-41
2022/12/29 01:01:28;;;;;;;;;;;;;;;11.95;86.79;98475.41;5071497;28;20006;-41
2022/12/29 01:03:53;;;;;;;;;;;;;;;12.00;86.63;98483.81;5072097;28;19973;-41
2022/12/29 01:06:18;;;;;;;;;;;;;;;11.98;87.11;98476.13;5070611;28;19925;-42
2022/12/29 01:08:43;;;;;;;;;;;;;;;11.95;88.63;98465.97;5073604;28;20371;-41
2022/12/29 01:11:09;;;;;;;;;;;;;;;12.00;88.88;98452.84;5073356;28;19959;-41
2022/12/29 01:13:35;;;;;;;;;;;;;;;12.14;89.24;98456.44;5072582;28;19924;-42
2022/12/29 01:16:00;;;;;;;;;;;;;;;12.17;91.87;98439.13;5071504;28;19920;-41
2022/12/29 01:18:26;;;;;;;;;;;;;;;12.35;91.58;98448.56;5072368;28;20413;-41
2022/12/29 01:20:53;;;;;;;;;;;;;;;11.75;93.99;98414.41;5070491;28;19955;-42
2022/12/29 01:23:18;;;;;;;;;;;;;;;11.90;91.50;98424.84;5070803;28;20070;-41
2022/12/29 01:25:43;;;;;;;;;;;;;;;12.11;91.08;98435.09;5072925;28;19963;-41
2022/12/29 01:28:08;;;;;;;;;;;;;;;12.17;91.02;98426.22;5071685;28;19977;-42
2022/12/29 01:30:34;;;;;;;;;;;;;;;12.32;92.96;98423.75;5071890;28;19916;-42
2022/12/29 01:32:59;;;;;;;;;;;;;;;12.04;95.68;98388.09;5071853;28;20432;-41
2022/12/29 01:35:25;;;;;;;;;;;;;;;11.96;94.94;98397.13;5071927;28;20015;-41
2022/12/29 01:37:50;;;;;;;;;;;;;;;11.81;93.87;98401.22;5073032;28;19927;-41
2022/12/29 01:40:15;;;;;;;;;;;;;;;12.37;89.58;98428.69;5068375;28;19920;-41
2022/12/29 01:42:41;;;;;;;;;;;;;;;12.16;90.60;98424.53;5070724;28;19923;-41
2022/12/29 01:45:09;;;;;;;;;;;;;;;12.00;91.89;98417.53;5071416;28;20381;-42
2022/12/29 01:47:52;;;;;;;;;;;;;;;12.35;89.71;98430.50;5072317;28;20336;-41
2022/12/29 01:50:33;;;;;;;;;;;;;;;12.25;90.09;98416.38;5068782;28;19924;-42
2022/12/29 01:52:59;;;;;;;;;;;;;;;12.13;91.27;98418.63;5070237;28;20017;-41
2022/12/29 01:55:26;;;;;;;;;;;;;;;12.11;89.82;98417.88;5069704;28;19962;-41
2022/12/29 01:57:51;;;;;;;;;;;;;;;11.74;90.98;98400.66;5072183;28;19946;-41
2022/12/29 02:00:16;;;;;;;;;;;;;;;12.24;86.73;98440.50;5068952;28;20041;-41
2022/12/29 02:02:42;;;;;;;;;;;;;;;12.23;87.30;98433.69;5071824;28;20010;-42
2022/12/29 02:05:11;;;;;;;;;;;;;;;12.18;86.78;98443.38;5068960;28;20381;-41
2022/12/29 02:07:36;;;;;;;;;;;;;;;12.16;85.94;98450.34;5062396;28;20269;-41
2022/12/29 02:10:02;;;;;;;;;;;;;;;12.21;83.54;98463.91;5067271;28;19924;-41
2022/12/29 02:12:27;;;;;;;;;;;;;;;11.99;81.01;98464.88;5071062;28;19916;-41
2022/12/29 02:14:56;;;;;;;;;;;;;;;12.21;79.89;98487.13;5071515;28;19965;-41
2022/12/29 02:17:25;;;;;;;;;;;;;;;12.06;79.58;98473.19;5072169;28;19926;-41
2022/12/29 02:20:09;;;;;;;;;;;;;;;12.04;78.04;98490.47;5071202;28;20383;-41
2022/12/29 02:22:49;;;;;;;;;;;;;;;12.19;75.01;98489.78;5070985;28;19943;-42
2022/12/29 02:25:23;;;;;;;;;;;;;;;11.96;76.74;98471.94;5070760;28;20065;-41
2022/12/29 02:27:51;;;;;;;;;;;;;;;11.81;79.25;98476.03;5071297;28;20015;-42
2022/12/29 02:30:29;;;;;;;;;;;;;;;11.98;80.02;98468.38;5070773;28;19920;-41
2022/12/29 02:32:57;;;;;;;;;;;;;;;12.25;79.58;98473.19;5071223;28;19942;-41
2022/12/29 02:35:43;;;;;;;;;;;;;;;12.06;81.40;98444.78;5069148;28;20325;-41
2022/12/29 02:38:27;;;;;;;;;;;;;;;11.78;83.35;98427.16;5070133;28;19926;-41
2022/12/29 02:41:18;;;;;;;;;;;;;;;12.06;83.22;98427.56;5068380;28;19997;-41
2022/12/29 02:43:49;;;;;;;;;;;;;;;12.17;84.67;98433.97;5055622;28;19920;-42
2022/12/29 02:46:27;;;;;;;;;;;;;;;12.17;89.37;98410.75;5070737;28;20519;-41
2022/12/29 02:48:54;;;;;;;;;;;;;;;12.00;90.52;98391.75;5069330;28;19924;-41
2022/12/29 02:51:21;;;;;;;;;;;;;;;12.43;92.32;98389.66;5068244;28;19920;-42
2022/12/29 02:56:30;;;;;;;;;;;;;;;12.23;96.91;98345.91;5070314;28;19927;-41
2022/12/29 02:58:55;;;;;;;;;;;;;;;12.34;98.56;98338.47;5069656;28;19916;-42
2022/12/29 03:01:26;;;;;;;;;;;;;;;11.99;99.67;98301.47;5069321;28;20011;-42
2022/12/29 03:03:52;;;;;;;;;;;;;;;12.31;100.00;98307.63;5069360;28;19977;-41
2022/12/29 03:06:20;;;;;;;;;;;;;;;12.06;100.00;98283.03;5070493;28;19920;-42
2022/12/29 03:08:49;;;;;;;;;;;;;;;12.21;100.00;98278.03;5067727;28;19925;-42
2022/12/29 03:16:46;;;;;;;;;;;;;;;12.38;100.00;98244.44;5068737;28;19927;-41
2022/12/29 03:19:23;;;;;;;;;;;;;;;12.64;100.00;98237.09;5068850;28;19922;-42
2022/12/29 03:24:43;;;;;;;;;;;;;;;12.40;100.00;98188.38;5069828;28;19981;-41
2022/12/29 03:27:09;;;;;;;;;;;;;;;12.38;100.00;98174.72;5069166;28;19923;-42
2022/12/29 03:29:40;;;;;;;;;;;;;;;12.34;100.00;98162.91;5067497;28;19932;-42
2022/12/29 03:32:06;;;;;;;;;;;;;;;12.68;100.00;98174.00;5068739;28;19916;-42
2022/12/29 03:34:31;;;;;;;;;;;;;;;12.67;100.00;98147.34;5067883;28;19920;-42
2022/12/29 03:37:00;;;;;;;;;;;;;;;12.74;100.00;98153.00;5069529;28;19920;-42
2022/12/29 03:39:26;;;;;;;;;;;;;;;12.39;100.00;98145.41;5067696;28;19920;-42
2022/12/29 03:41:52;;;;;;;;;;;;;;;12.75;100.00;98142.59;5068292;28;19927;-42
2022/12/29 03:44:18;;;;;;;;;;;;;;;12.33;100.00;98117.34;5066757;28;19916;-43
2022/12/29 03:46:43;;;;;;;;;;;;;;;12.71;100.00;98125.59;5070621;28;20855;-42
2022/12/29 03:49:08;;;;;;;;;;;;;;;12.68;100.00;98109.41;5069123;28;19947;-42
2022/12/29 03:51:33;;;;;;;;;;;;;;;12.75;100.00;98110.78;5070510;28;19926;-42
2022/12/29 03:53:59;;;;;;;;;;;;;;;12.74;100.00;98119.44;5070077;28;19956;-42
2022/12/29 03:56:24;;;;;;;;;;;;;;;12.83;100.00;98103.41;5069432;28;19920;-42
2022/12/29 03:58:49;;;;;;;;;;;;;;;12.70;100.00;98105.00;5070285;28;19931;-42
2022/12/29 04:01:14;;;;;;;;;;;;;;;12.98;100.00;98102.56;5070463;28;19927;-42
2022/12/29 04:03:40;;;;;;;;;;;;;;;12.97;100.00;98098.28;5069220;28;19916;-42
2022/12/29 04:06:05;;;;;;;;;;;;;;;12.58;100.00;98082.44;5069990;28;20771;-42
2022/12/29 04:08:30;;;;;;;;;;;;;;;12.74;100.00;98101.34;5061900;28;19923;-42
2022/12/29 04:10:55;;;;;;;;;;;;;;;12.84;100.00;98112.84;5068253;28;19920;-41
2022/12/29 04:13:21;;;;;;;;;;;;;;;12.43;100.00;98108.19;5070033;28;20369;-41
2022/12/29 04:15:46;;;;;;;;;;;;;;;12.64;100.00;98124.28;5072260;28;20393;-41
2022/12/29 04:18:11;;;;;;;;;;;;;;;12.74;100.00;98124.59;5074386;28;20022;-41
2022/12/29 04:23:20;;;;;;;;;;;;;;;12.44;100.00;98135.66;5072469;28;20066;-41
2022/12/29 04:25:47;;;;;;;;;;;;;;;12.71;100.00;98148.03;5073684;28;20003;-41
2022/12/29 04:28:12;;;;;;;;;;;;;;;12.61;100.00;98150.25;5072938;28;19916;-41
2022/12/29 04:30:37;;;;;;;;;;;;;;;12.40;100.00;98167.72;5074079;28;19923;-41
2022/12/29 04:33:03;;;;;;;;;;;;;;;12.35;100.00;98200.72;5070428;28;19965;-41
2022/12/29 04:35:28;;;;;;;;;;;;;;;12.29;100.00;98216.50;5073862;28;19969;-41
2022/12/29 04:37:53;;;;;;;;;;;;;;;12.19;100.00;98230.81;5072781;28;20389;-41
2022/12/29 04:40:18;;;;;;;;;;;;;;;12.19;100.00;98254.03;5068807;28;20899;-41
2022/12/29 04:42:43;;;;;;;;;;;;;;;12.23;98.75;98273.63;5072329;28;20442;-41
2022/12/29 04:45:09;;;;;;;;;;;;;;;12.59;96.18;98298.47;5072988;28;19947;-41
2022/12/29 04:47:34;;;;;;;;;;;;;;;12.32;98.43;98278.34;5072401;28;19965;-41
2022/12/29 04:49:59;;;;;;;;;;;;;;;12.44;98.82;98272.53;5072519;28;19959;-41
2022/12/29 04:52:25;;;;;;;;;;;;;;;12.40;98.00;98276.19;5070377;28;19916;-41
2022/12/29 04:54:50;;;;;;;;;;;;;;;12.30;97.50;98259.50;5073177;28;20549;-41
2022/12/29 04:57:15;;;;;;;;;;;;;;;12.41;96.97;98262.38;5071719;28;19916;-41
2022/12/29 04:59:40;;;;;;;;;;;;;;;12.26;98.36;98247.66;5070447;28;20003;-41
2022/12/29 05:02:06;;;;;;;;;;;;;;;12.14;96.15;98262.84;5072534;28;19979;-41
2022/12/29 05:04:31;;;;;;;;;;;;;;;12.34;94.23;98269.59;5071203;28;19931;-41
2022/12/29 05:06:56;;;;;;;;;;;;;;;12.27;96.42;98262.22;5072275;28;20011;-41
2022/12/29 05:09:21;;;;;;;;;;;;;;;12.62;99.51;98241.50;5070472;28;19928;-41
2022/12/29 05:11:46;;;;;;;;;;;;;;;12.15;100.00;98217.22;5072206;28;19912;-41
2022/12/29 05:14:12;;;;;;;;;;;;;;;12.49;100.00;98231.81;5072558;28;20428;-41
2022/12/29 05:16:37;;;;;;;;;;;;;;;12.35;100.00;98217.03;5073358;28;19923;-41
2022/12/29 05:19:02;;;;;;;;;;;;;;;12.49;100.00;98224.06;5072426;28;19954;-41
2022/12/29 05:21:27;;;;;;;;;;;;;;;12.47;100.00;98206.97;5070735;28;19920;-41
2022/12/29 05:23:53;;;;;;;;;;;;;;;12.71;100.00;98192.75;5070695;28;19924;-41
2022/12/29 05:26:18;;;;;;;;;;;;;;;12.58;100.00;98173.66;5071578;28;19929;-41
2022/12/29 05:28:43;;;;;;;;;;;;;;;12.75;100.00;98168.44;5073014;28;19924;-41
2022/12/29 05:31:08;;;;;;;;;;;;;;;12.62;100.00;98157.09;5067290;28;20011;-41
2022/12/29 05:33:33;;;;;;;;;;;;;;;12.67;100.00;98151.69;5070100;28;20270;-41
2022/12/29 05:36:05;;;;;;;;;;;;;;;13.06;100.00;98150.41;5072855;28;20474;-41
2022/12/29 05:38:30;;;;;;;;;;;;;;;12.51;100.00;98118.91;5069535;28;19939;-41
2022/12/29 05:40:56;;;;;;;;;;;;;;;12.49;100.00;98130.25;5071608;28;20297;-41
2022/12/29 05:43:21;;;;;;;;;;;;;;;12.46;100.00;98141.59;5070675;28;19951;-41
2022/12/29 05:45:48;;;;;;;;;;;;;;;12.41;100.00;98153.91;5071665;28;19920;-41
2022/12/29 05:48:13;;;;;;;;;;;;;;;12.70;100.00;98164.41;5070937;28;19923;-41
2022/12/29 05:50:38;;;;;;;;;;;;;;;12.75;100.00;98152.13;5072527;28;19920;-41
2022/12/29 05:53:03;;;;;;;;;;;;;;;12.61;100.00;98128.75;5071388;28;19996;-41
2022/12/29 05:55:29;;;;;;;;;;;;;;;12.41;100.00;98117.78;5068914;28;19952;-41
2022/12/29 05:57:54;;;;;;;;;;;;;;;12.89;100.00;98139.25;5070688;28;19928;-41
2022/12/29 06:00:19;;;;;;;;;;;;;;;12.96;100.00;98130.25;5071623;28;19928;-41
2022/12/29 06:02:44;;;;;;;;;;;;;;;12.68;100.00;98119.75;5070170;28;19912;-41
2022/12/29 06:05:10;;;;;;;;;;;;;;;12.77;100.00;98129.59;5070471;28;19924;-41
2022/12/29 06:07:35;;;;;;;;;;;;;;;12.73;100.00;98128.94;5073007;28;20410;-42
2022/12/29 06:10:00;;;;;;;;;;;;;;;12.71;100.00;98117.03;5070783;28;20018;-41
2022/12/29 06:12:25;;;;;;;;;;;;;;;12.45;100.00;98124.44;5071571;28;19927;-42
2022/12/29 06:14:50;;;;;;;;;;;;;;;12.46;100.00;98115.75;5071371;28;19969;-41
2022/12/29 06:17:16;;;;;;;;;;;;;;;12.47;100.00;98120.00;5071204;28;19920;-42
2022/12/29 06:19:41;;;;;;;;;;;;;;;12.40;100.00;98116.09;5071932;28;20011;-42
2022/12/29 06:22:07;;;;;;;;;;;;;;;12.75;100.00;98123.69;5071486;28;19985;-42
2022/12/29 06:24:32;;;;;;;;;;;;;;;12.74;100.00;98109.09;5071625;28;19915;-41
2022/12/29 06:26:57;;;;;;;;;;;;;;;12.60;100.00;98133.09;5070947;28;19927;-41
2022/12/29 06:29:23;;;;;;;;;;;;;;;12.74;100.00;98124.59;5069891;28;19920;-41
2022/12/29 06:31:49;;;;;;;;;;;;;;;12.86;100.00;98108.41;5070377;28;19954;-41
2022/12/29 06:34:14;;;;;;;;;;;;;;;12.68;100.00;98099.94;5068139;28;19942;-41
2022/12/29 06:36:39;;;;;;;;;;;;;;;12.68;100.00;98104.25;5066164;28;20068;-41
2022/12/29 06:39:05;;;;;;;;;;;;;;;12.68;100.00;98106.84;5072095;28;19928;-41
2022/12/29 06:41:30;;;;;;;;;;;;;;;13.09;100.00;98101.97;5070663;28;19920;-41
2022/12/29 06:43:55;;;;;;;;;;;;;;;12.70;100.00;98081.75;5069266;28;19974;-42
2022/12/29 06:46:20;;;;;;;;;;;;;;;12.94;100.00;98095.91;5069105;28;19970;-42
2022/12/29 06:48:46;;;;;;;;;;;;;;;12.80;100.00;98082.94;5069671;28;19931;-41
2022/12/29 06:51:11;;;;;;;;;;;;;;;12.72;100.00;98072.16;5070209;28;20293;-42
2022/12/29 06:53:36;;;;;;;;;;;;;;;12.61;100.00;98082.25;5070285;28;19916;-42
2022/12/29 06:56:01;;;;;;;;;;;;;;;12.77;100.00;98083.06;5071757;28;20006;-41
2022/12/29 06:58:27;;;;;;;;;;;;;;;13.01;100.00;98070.53;5068848;28;19944;-41
2022/12/29 07:00:52;;;;;;;;;;;;;;;12.92;100.00;98065.91;5069479;28;19912;-41
2022/12/29 07:03:17;;;;;;;;;;;;;;;12.64;100.00;98051.13;5069192;28;20380;-41
2022/12/29 07:05:42;;;;;;;;;;;;;;;13.11;100.00;98076.00;5068494;28;19920;-41
2022/12/29 07:08:07;;;;;;;;;;;;;;;12.69;100.00;98075.75;5071273;28;19921;-40
2022/12/29 07:10:33;;;;;;;;;;;;;;;12.87;100.00;98097.16;5070111;28;19986;-42
2022/12/29 07:12:58;;;;;;;;;;;;;;;13.11;100.00;98107.03;5070804;28;19920;-42
2022/12/29 07:15:23;;;;;;;;;;;;;;;13.13;100.00;98100.03;5071110;28;20313;-41
2022/12/29 07:17:49;;;;;;;;;;;;;;;13.03;100.00;98091.97;5068902;28;20509;-41
2022/12/29 07:20:14;;;;;;;;;;;;;;;13.11;100.00;98107.03;5071654;28;20770;-41
2022/12/29 07:22:40;;;;;;;;;;;;;;;13.13;100.00;98106.03;5070356;28;19951;-41
2022/12/29 07:25:05;;;;;;;;;;;;;;;12.93;100.00;98114.91;5070211;28;20696;-42
2022/12/29 07:27:30;;;;;;;;;;;;;;;13.24;100.00;98122.69;5070589;28;19921;-40
2022/12/29 07:29:56;;;;;;;;;;;;;;;12.97;100.00;98131.91;5069733;28;19922;-41
2022/12/29 07:32:21;;;;;;;;;;;;;;;13.04;100.00;98127.22;5070058;28;19978;-41
2022/12/29 07:34:47;;;;;;;;;;;;;;;12.72;100.00;98119.50;5062283;28;19923;-41
2022/12/29 07:37:13;;;;;;;;;;;;;;;12.72;100.00;98155.66;5071328;28;20451;-42
2022/12/29 07:39:39;;;;;;;;;;;;;;;12.34;100.00;98163.72;5069209;28;19995;-41
2022/12/29 07:42:04;;;;;;;;;;;;;;;12.71;100.00;98173.84;5066470;28;20018;-41
2022/12/29 07:44:29;;;;;;;;;;;;;;;12.93;100.00;98184.69;5070712;28;20080;-42
2022/12/29 07:46:54;;;;;;;;;;;;;;;12.85;100.00;98179.09;5067239;28;19920;-41
2022/12/29 07:49:20;;;;;;;;;;;;;;;12.71;100.00;98182.44;5072076;28;20498;-41
2022/12/29 07:51:45;;;;;;;;;;;;;;;12.67;100.00;98186.09;5073782;28;19920;-41
2022/12/29 07:54:11;;;;;;;;;;;;;;;12.24;100.00;98183.19;5070728;28;19926;-40
2022/12/29 07:56:37;;;;;;;;;;;;;;;12.70;100.00;98221.25;5072542;28;19965;-41
2022/12/29 07:59:02;;;;;;;;;;;;;;;11.85;100.00;98232.47;5073673;28;19924;-41
2022/12/29 08:01:27;;;;;;;;;;;;;;;12.50;100.00;98277.38;5073062;28;19920;-41
2022/12/29 08:03:52;;;;;;;;;;;;;;;12.58;100.00;98296.81;5073194;28;19916;-41
2022/12/29 08:06:18;;;;;;;;;;;;;;;12.29;100.00;98304.28;5073107;28;19924;-41
2022/12/29 08:08:43;;;;;;;;;;;;;;;12.52;100.00;98327.22;5072182;28;19974;-41
2022/12/29 08:11:08;;;;;;;;;;;;;;;12.63;100.00;98328.41;5073764;28;20339;-41
2022/12/29 08:13:34;;;;;;;;;;;;;;;12.84;100.00;98348.00;5071755;28;20015;-41
2022/12/29 08:15:59;;;;;;;;;;;;;;;13.17;100.00;98339.38;5072013;28;19935;-41
2022/12/29 08:18:24;;;;;;;;;;;;;;;12.74;100.00;98320.94;5072529;28;19928;-41
2022/12/29 08:20:49;;;;;;;;;;;;;;;12.32;100.00;98332.56;5072647;28;19939;-41
2022/12/29 08:23:15;;;;;;;;;;;;;;;12.28;100.00;98346.53;5072685;28;20293;-41
2022/12/29 08:25:40;;;;;;;;;;;;;;;11.63;100.00;98348.72;5073281;28;19921;-41
2022/12/29 08:28:05;;;;;;;;;;;;;;;12.20;100.00;98371.88;5071574;28;19977;-41
2022/12/29 08:30:30;;;;;;;;;;;;;;;12.26;100.00;98367.25;5071511;28;19932;-41
2022/12/29 08:32:56;;;;;;;;;;;;;;;12.54;100.00;98358.97;5075199;28;19916;-41
2022/12/29 08:35:21;;;;;;;;;;;;;;;12.28;100.00;98369.75;5072659;28;19920;-41
2022/12/29 08:37:46;;;;;;;;;;;;;;;12.41;100.00;98365.66;5072321;28;20393;-41
2022/12/29 08:40:11;;;;;;;;;;;;;;;12.61;100.00;98361.22;5070220;28;19916;-41
2022/12/29 08:42:37;;;;;;;;;;;;;;;12.51;100.00;98341.03;5071429;28;19920;-41
2022/12/29 08:45:02;;;;;;;;;;;;;;;12.62;100.00;98331.91;5073743;28;19928;-41
2022/12/29 08:47:27;;;;;;;;;;;;;;;12.45;100.00;98327.59;5072546;28;20056;-41
2022/12/29 08:49:53;;;;;;;;;;;;;;;12.37;100.00;98312.50;5072907;28;19925;-41
2022/12/29 08:52:18;;;;;;;;;;;;;;;12.91;100.00;98320.91;5072044;28;19920;-41
2022/12/29 08:54:43;;;;;;;;;;;;;;;12.49;100.00;98305.88;5074076;28;19920;-41
2022/12/29 08:57:08;;;;;;;;;;;;;;;11.97;100.00;98296.38;5072566;28;20350;-41
2022/12/29 08:59:34;;;;;;;;;;;;;;;11.97;100.00;98324.78;5069704;28;20507;-41
2022/12/29 09:02:00;;;;;;;;;;;;;;;12.26;100.00;98314.78;5070890;28;19931;-41
2022/12/29 09:04:26;;;;;;;;;;;;;;;12.20;100.00;98309.91;5071899;28;20050;-41
2022/12/29 09:06:52;;;;;;;;;;;;;;;12.26;100.00;98299.28;5072770;28;19916;-41
2022/12/29 09:09:18;;;;;;;;;;;;;;;12.52;100.00;98280.72;5072265;28;19931;-41
2022/12/29 09:11:43;;;;;;;;;;;;;;;12.35;100.00;98252.34;5072484;28;19931;-41
2022/12/29 09:14:08;;;;;;;;;;;;;;;12.36;100.00;98254.00;5072341;28;19916;-41
2022/12/29 09:16:34;;;;;;;;;;;;;;;12.43;100.00;98246.78;5074525;28;19927;-41
2022/12/29 09:18:59;;;;;;;;;;;;;;;12.12;100.00;98232.88;5071580;28;20377;-41
2022/12/29 09:21:24;;;;;;;;;;;;;;;12.54;100.00;98241.88;5071614;28;19920;-41
2022/12/29 09:23:49;;;;;;;;;;;;;;;12.19;100.00;98215.31;5070203;28;20752;-41
2022/12/29 09:26:15;;;;;;;;;;;;;;;12.69;100.00;98198.94;5072360;28;19916;-41
2022/12/29 09:28:40;;;;;;;;;;;;;;;12.43;100.00;98177.91;5069966;28;19931;-41
2022/12/29 09:31:05;;;;;;;;;;;;;;;12.58;100.00;98168.50;5073855;28;21017;-41
2022/12/29 09:33:33;;;;;;;;;;;;;;;12.75;100.00;98154.69;5070443;28;19916;-41
2022/12/29 09:35:58;;;;;;;;;;;;;;;12.64;100.00;98146.69;5072954;28;19924;-41
2022/12/29 09:38:24;;;;;;;;;;;;;;;12.41;100.00;98138.44;5071543;28;19924;-41
2022/12/29 09:40:50;;;;;;;;;;;;;;;12.47;100.00;98142.41;5072559;28;19923;-41
2022/12/29 09:43:28;;;;;;;;;;;;;;;12.88;100.00;98168.59;5072198;28;19920;-41
2022/12/29 09:46:05;;;;;;;;;;;;;;;12.14;100.00;98157.03;5071691;28;19920;-41
2022/12/29 09:48:31;;;;;;;;;;;;;;;12.21;100.00;98170.44;5070107;28;19923;-41
2022/12/29 09:50:58;;;;;;;;;;;;;;;12.32;100.00;98200.88;5070397;28;19962;-40
2022/12/29 09:53:30;;;;;;;;;;;;;;;12.79;100.00;98232.84;5072792;28;20531;-41
2022/12/29 09:55:56;;;;;;;;;;;;;;;12.14;100.00;98233.63;5071089;28;19965;-41
2022/12/29 09:58:23;;;;;;;;;;;;;;;11.76;100.00;98269.03;5068872;28;19920;-41
2022/12/29 10:00:50;;;;;;;;;;;;;;;11.22;100.00;98300.78;5071150;28;19913;-41
2022/12/29 10:03:16;;;;;;;;;;;;;;;10.85;100.00;98364.22;5071257;28;19923;-42
2022/12/29 10:05:49;;;;;;;;;;;;;;;10.73;100.00;98442.03;5067859;28;19978;-42
2022/12/29 10:08:26;;;;;;;;;;;;;;;11.72;98.57;98505.66;5067961;28;19920;-42
2022/12/29 10:10:55;;;;;;;;;;;;;;;11.48;100.00;98515.31;5070735;28;19956;-42
2022/12/29 10:13:30;;;;;;;;;;;;;;;11.60;100.00;98519.94;5062749;28;19958;-42
2022/12/29 10:15:56;;;;;;;;;;;;;;;11.85;100.00;98495.63;5069617;28;20286;-43
2022/12/29 10:18:24;;;;;;;;;;;;;;;11.89;100.00;98469.66;5070997;28;19927;-42
2022/12/29 10:20:49;;;;;;;;;;;;;;;11.69;100.00;98442.13;5071412;28;19931;-43
2022/12/29 10:23:33;;;;;;;;;;;;;;;12.06;100.00;98432.72;5067829;28;20659;-42
2022/12/29 10:25:59;;;;;;;;;;;;;;;12.08;100.00;98368.97;5070655;28;20458;-42
2022/12/29 10:28:31;;;;;;;;;;;;;;;12.39;100.00;98335.66;5067164;28;19920;-42
2022/12/29 10:30:58;;;;;;;;;;;;;;;12.63;100.00;98292.25;5069407;28;19918;-42
2022/12/29 10:33:25;;;;;;;;;;;;;;;12.64;100.00;98237.09;5069118;28;19977;-42
2022/12/29 10:35:50;;;;;;;;;;;;;;;12.49;100.00;98198.22;5060603;28;20706;-42
2022/12/29 10:38:15;;;;;;;;;;;;;;;12.96;100.00;98176.75;5066812;28;19920;-42
2022/12/29 10:40:45;;;;;;;;;;;;;;;12.65;100.00;98146.59;5069789;28;19999;-42
2022/12/29 10:43:29;;;;;;;;;;;;;;;12.32;100.00;98110.50;5068656;28;19920;-42
2022/12/29 10:45:56;;;;;;;;;;;;;;;12.66;100.00;98108.69;5070983;28;19924;-42
2022/12/29 10:48:22;;;;;;;;;;;;;;;12.72;100.00;98111.75;5068439;28;19919;-41
2022/12/29 10:50:49;;;;;;;;;;;;;;;12.44;100.00;98091.78;5069341;28;21356;-42
2022/12/29 10:53:22;;;;;;;;;;;;;;;12.24;100.00;98085.09;5066585;28;19916;-42
2022/12/29 10:55:48;;;;;;;;;;;;;;;12.35;100.00;98074.19;5068399;28;19920;-42
2022/12/29 10:58:13;;;;;;;;;;;;;;;12.21;100.00;98058.63;5069383;28;20289;-41
2022/12/29 11:00:38;;;;;;;;;;;;;;;12.17;100.00;98047.63;5070087;28;20285;-42
2022/12/29 11:03:22;;;;;;;;;;;;;;;12.57;100.00;98055.78;5069626;28;19947;-42
2022/12/29 11:05:57;;;;;;;;;;;;;;;12.62;100.00;98047.78;5071155;28;20560;-43
2022/12/29 11:08:24;;;;;;;;;;;;;;;12.55;100.00;98037.78;5070063;28;19959;-42
2022/12/29 11:10:58;;;;;;;;;;;;;;;12.18;100.00;98020.91;5067393;28;20565;-42
2022/12/29 11:13:27;;;;;;;;;;;;;;;11.98;100.00;98021.97;5069682;28;19916;-41
2022/12/29 11:15:52;;;;;;;;;;;;;;;12.12;100.00;98014.31;5070117;28;19962;-42
2022/12/29 11:18:31;;;;;;;;;;;;;;;12.19;100.00;98008.81;5070358;28;20261;-42
2022/12/29 11:21:01;;;;;;;;;;;;;;;12.68;100.00;97996.63;5070289;28;19912;-42
2022/12/29 11:23:29;;;;;;;;;;;;;;;12.74;100.00;97991.06;5068834;28;19920;-41
2022/12/29 11:26:12;;;;;;;;;;;;;;;12.39;100.00;97980.16;5071494;28;19916;-41
2022/12/29 11:28:38;;;;;;;;;;;;;;;12.13;100.00;97972.13;5068509;28;19920;-41
2022/12/29 11:31:03;;;;;;;;;;;;;;;12.49;100.00;97972.72;5071100;28;19927;-42
2022/12/29 11:33:29;;;;;;;;;;;;;;;12.14;100.00;97973.78;5071176;28;19968;-42
2022/12/29 11:35:58;;;;;;;;;;;;;;;11.86;100.00;97961.50;5070142;28;20385;-42
2022/12/29 11:38:25;;;;;;;;;;;;;;;12.69;100.00;97974.19;5070732;28;19920;-42
2022/12/29 11:40:50;;;;;;;;;;;;;;;12.45;100.00;97968.66;5062296;28;20327;-41
2022/12/29 11:43:34;;;;;;;;;;;;;;;12.59;100.00;97970.44;5066545;28;19920;-41
2022/12/29 11:46:02;;;;;;;;;;;;;;;12.29;100.00;97958.34;5067835;28;19970;-42
2022/12/29 11:48:28;;;;;;;;;;;;;;;12.26;100.00;97943.03;5067697;28;19920;-42
2022/12/29 11:50:55;;;;;;;;;;;;;;;12.23;100.00;97966.44;5070285;28;19916;-42
2022/12/29 11:53:21;;;;;;;;;;;;;;;12.44;100.00;97962.66;5070017;28;19928;-42
2022/12/29 11:56:06;;;;;;;;;;;;;;;12.52;100.00;97963.06;5067688;28;20478;-42
2022/12/29 11:58:32;;;;;;;;;;;;;;;12.43;100.00;97961.00;5068617;28;20286;-42
2022/12/29 12:01:02;;;;;;;;;;;;;;;12.09;100.00;97947.41;5067133;28;19927;-42
2022/12/29 12:03:27;;;;;;;;;;;;;;;12.07;100.00;97959.53;5069215;28;20019;-41
2022/12/29 12:05:54;;;;;;;;;;;;;;;12.14;100.00;97953.13;5069622;28;19993;-41
2022/12/29 12:08:23;;;;;;;;;;;;;;;12.54;100.00;97973.28;5069050;28;19961;-41
2022/12/29 12:10:48;;;;;;;;;;;;;;;12.02;100.00;97958.97;5070656;28;20353;-41
2022/12/29 12:13:13;;;;;;;;;;;;;;;12.23;100.00;97963.88;5068715;28;19916;-41
2022/12/29 12:15:43;;;;;;;;;;;;;;;12.59;100.00;97960.13;5062973;28;19919;-41
2022/12/29 12:18:10;;;;;;;;;;;;;;;11.99;100.00;97966.03;5069213;28;19969;-41
2022/12/29 12:20:42;;;;;;;;;;;;;;;11.93;100.00;97965.47;5070335;28;20297;-41
2022/12/29 12:23:20;;;;;;;;;;;;;;;12.04;100.00;97980.38;5070632;28;19912;-41
2022/12/29 12:26:01;;;;;;;;;;;;;;;11.83;100.00;97982.31;5068911;28;19916;-41
2022/12/29 12:28:39;;;;;;;;;;;;;;;11.90;100.00;97983.66;5067982;28;21046;-41
2022/12/29 12:31:05;;;;;;;;;;;;;;;12.03;100.00;97986.44;5070416;28;19920;-41
2022/12/29 12:33:33;;;;;;;;;;;;;;;11.76;100.00;97983.53;5070734;28;19927;-41
2022/12/29 12:36:16;;;;;;;;;;;;;;;11.95;100.00;97978.28;5073830;28;19923;-41
2022/12/29 12:38:54;;;;;;;;;;;;;;;12.45;100.00;97997.06;5073315;28;20461;-41
2022/12/29 12:41:39;;;;;;;;;;;;;;;12.43;100.00;97991.13;5071228;28;19928;-41
2022/12/29 12:44:10;;;;;;;;;;;;;;;11.84;100.00;97981.41;5057172;28;19924;-41
2022/12/29 12:46:54;;;;;;;;;;;;;;;12.40;100.00;97992.16;5072293;28;20335;-41
2022/12/29 12:49:25;;;;;;;;;;;;;;;11.74;100.00;97982.78;5071500;28;19916;-41
2022/12/29 12:52:02;;;;;;;;;;;;;;;12.31;100.00;97998.66;5072338;28;19924;-41
2022/12/29 12:54:31;;;;;;;;;;;;;;;12.05;100.00;97994.91;5069226;28;19920;-41
2022/12/29 12:57:22;;;;;;;;;;;;;;;12.17;100.00;97992.59;5073556;28;19923;-41
2022/12/29 12:59:47;;;;;;;;;;;;;;;12.04;100.00;98010.47;5069796;28;20281;-42
2022/12/29 13:02:22;;;;;;;;;;;;;;;12.14;100.00;98011.66;5073449;28;19931;-41
2022/12/29 13:04:56;;;;;;;;;;;;;;;12.37;100.00;98007.81;5071699;28;19916;-41
2022/12/29 13:07:31;;;;;;;;;;;;;;;11.65;100.00;98030.53;5072362;28;20373;-41
2022/12/29 13:10:15;;;;;;;;;;;;;;;12.01;100.00;98041.63;5072042;28;19920;-42
2022/12/29 13:12:46;;;;;;;;;;;;;;;11.89;100.00;98038.78;5072450;28;19924;-42
2022/12/29 13:15:14;;;;;;;;;;;;;;;11.75;100.00;98038.63;5072119;28;19960;-41
2022/12/29 13:17:39;;;;;;;;;;;;;;;11.63;100.00;98034.97;5071345;28;19940;-41
2022/12/29 13:20:04;;;;;;;;;;;;;;;11.93;100.00;98039.47;5073281;28;20297;-41
2022/12/29 13:22:33;;;;;;;;;;;;;;;11.65;100.00;98046.00;5071708;28;20385;-41